createdAt,value
2019-05-16T00:02:08.216Z,100429.78
2019-05-16T00:04:37.986Z,100426.04
2019-05-16T00:07:08.041Z,100413.76
2019-05-16T00:09:38.168Z,100419.27
2019-05-16T00:12:08.758Z,100421.48
2019-05-16T00:14:38.714Z,100418.53
2019-05-16T00:17:08.437Z,100412.80
2019-05-16T00:19:38.244Z,100411.62
2019-05-16T00:22:08.711Z,100410.59
2019-05-16T00:24:38.300Z,100410.00
2019-05-16T00:27:08.358Z,100404.21
2019-05-16T00:29:38.352Z,100405.27
2019-05-16T00:32:08.609Z,100393.64
2019-05-16T00:34:38.476Z,100391.24
2019-05-16T00:37:08.679Z,100391.77
2019-05-16T00:39:38.780Z,100388.05
2019-05-16T00:42:08.840Z,100390.37
2019-05-16T00:44:38.685Z,100391.73
2019-05-16T00:47:08.717Z,100384.22
2019-05-16T00:49:38.642Z,100393.91
2019-05-16T00:52:07.879Z,100389.96
2019-05-16T00:54:38.398Z,100381.47
2019-05-16T00:57:08.491Z,100380.83
2019-05-16T00:59:39.080Z,100382.84
2019-05-16T01:02:08.945Z,100383.53
2019-05-16T01:04:38.459Z,100385.22
2019-05-16T01:07:08.294Z,100388.55
2019-05-16T01:09:38.547Z,100378.73
2019-05-16T01:12:08.483Z,100378.92
2019-05-16T01:14:38.442Z,100373.61
2019-05-16T01:17:08.674Z,100379.13
2019-05-16T01:19:38.112Z,100377.30
2019-05-16T01:22:08.284Z,100375.32
2019-05-16T01:24:41.188Z,100377.52
2019-05-16T01:27:08.411Z,100372.00
2019-05-16T01:29:38.498Z,100376.69
2019-05-16T01:32:08.430Z,100375.36
2019-05-16T01:34:37.952Z,100376.86
2019-05-16T01:37:08.313Z,100370.88
2019-05-16T01:39:38.186Z,100371.05
2019-05-16T01:42:08.045Z,100366.92
2019-05-16T01:44:38.176Z,100364.27
2019-05-16T01:47:09.034Z,100358.45
2019-05-16T01:49:38.232Z,100351.80
2019-05-16T01:52:08.471Z,100356.13
2019-05-16T01:54:38.816Z,100360.77
2019-05-16T01:57:08.252Z,100354.30
2019-05-16T01:59:37.980Z,100350.95
2019-05-16T02:02:08.424Z,100347.30
2019-05-16T02:04:37.973Z,100341.80
2019-05-16T02:07:08.645Z,100345.98
2019-05-16T02:09:38.427Z,100343.66
2019-05-16T02:12:10.680Z,100333.02
2019-05-16T02:14:39.256Z,100329.18
2019-05-16T02:17:11.152Z,100336.48
2019-05-16T02:19:39.066Z,100323.38
2019-05-16T02:22:08.980Z,100322.67
2019-05-16T02:24:38.816Z,100316.53
2019-05-16T02:27:09.592Z,100318.19
2019-05-16T02:29:40.115Z,100313.20
2019-05-16T02:32:11.588Z,100316.52
2019-05-16T02:34:41.621Z,100304.25
2019-05-16T02:37:23.613Z,100303.89
2019-05-16T02:39:42.047Z,100309.22
2019-05-16T02:42:12.146Z,100309.05
2019-05-16T02:44:41.638Z,100308.22
2019-05-16T02:47:11.122Z,100306.06
2019-05-16T02:49:41.855Z,100303.55
2019-05-16T02:52:11.296Z,100305.08
2019-05-16T02:54:41.418Z,100304.09
2019-05-16T02:57:11.443Z,100298.91
2019-05-16T02:59:41.690Z,100296.39
2019-05-16T03:02:11.543Z,100293.42
2019-05-16T03:04:44.218Z,100293.09
2019-05-16T03:07:31.389Z,100292.27
2019-05-16T03:09:43.656Z,100294.95
2019-05-16T03:12:13.102Z,100283.30
2019-05-16T03:14:42.149Z,100279.33
2019-05-16T03:17:12.694Z,100277.49
2019-05-16T03:19:43.246Z,100277.63
2019-05-16T03:22:14.221Z,100271.30
2019-05-16T03:24:43.709Z,100276.30
2019-05-16T03:27:12.978Z,100272.13
2019-05-16T03:29:42.245Z,100268.66
2019-05-16T03:32:14.195Z,100273.12
2019-05-16T03:34:44.031Z,100272.31
2019-05-16T03:37:14.528Z,100263.00
2019-05-16T03:39:44.079Z,100260.00
2019-05-16T03:42:13.109Z,100258.51
2019-05-16T03:44:42.484Z,100261.32
2019-05-16T03:47:11.526Z,100257.68
2019-05-16T03:49:42.281Z,100254.71
2019-05-16T03:52:11.669Z,100260.52
2019-05-16T03:54:41.999Z,100257.04
2019-05-16T03:57:11.672Z,100262.67
2019-05-16T03:59:41.124Z,100265.36
2019-05-16T04:02:10.937Z,100261.85
2019-05-16T04:04:41.751Z,100259.85
2019-05-16T04:07:11.304Z,100258.00
2019-05-16T04:09:41.155Z,100257.69
2019-05-16T04:12:10.913Z,100260.66
2019-05-16T04:14:40.936Z,100255.86
2019-05-16T04:17:11.068Z,100255.53
2019-05-16T04:19:41.539Z,100246.39
2019-05-16T04:22:14.816Z,100241.06
2019-05-16T04:24:44.663Z,100245.72
2019-05-16T04:27:13.690Z,100246.23
2019-05-16T04:29:42.872Z,100243.56
2019-05-16T04:32:12.114Z,100246.22
2019-05-16T04:34:41.914Z,100246.06
2019-05-16T04:37:11.590Z,100244.06
2019-05-16T04:39:41.491Z,100233.75
2019-05-16T04:42:11.210Z,100232.42
2019-05-16T04:44:41.605Z,100231.75
2019-05-16T04:47:11.432Z,100231.08
2019-05-16T04:49:41.348Z,100224.58
2019-05-16T04:52:11.404Z,100228.20
2019-05-16T04:54:42.025Z,100222.73
2019-05-16T04:57:12.069Z,100225.20
2019-05-16T04:59:41.926Z,100226.52
2019-05-16T05:02:12.386Z,100231.70
2019-05-16T05:04:43.917Z,100227.71
2019-05-16T05:07:12.996Z,100221.89
2019-05-16T05:09:42.211Z,100224.20
2019-05-16T05:12:11.703Z,100224.05
2019-05-16T05:14:41.607Z,100224.65
2019-05-16T05:17:10.852Z,100219.33
2019-05-16T05:19:41.350Z,100223.33
2019-05-16T05:22:10.617Z,100217.14
2019-05-16T05:24:40.591Z,100220.56
2019-05-16T05:27:10.506Z,100217.88
2019-05-16T05:29:40.054Z,100223.72
2019-05-16T05:32:14.052Z,100217.95
2019-05-16T05:34:40.271Z,100224.88
2019-05-16T05:37:12.533Z,100217.55
2019-05-16T05:39:40.238Z,100222.65
2019-05-16T05:42:10.519Z,100217.05
2019-05-16T05:44:40.235Z,100220.20
2019-05-16T05:47:10.790Z,100218.45
2019-05-16T05:49:40.532Z,100215.26
2019-05-16T05:52:11.819Z,100216.31
2019-05-16T05:54:40.870Z,100211.27
2019-05-16T05:57:10.113Z,100215.44
2019-05-16T05:59:40.459Z,100216.69
2019-05-16T06:02:11.291Z,100219.89
2019-05-16T06:04:40.637Z,100226.65
2019-05-16T06:07:10.229Z,100222.95
2019-05-16T06:09:50.451Z,100221.49
2019-05-16T06:12:10.640Z,100222.95
2019-05-16T06:14:41.875Z,100225.72
2019-05-16T06:17:11.491Z,100226.58
2019-05-16T06:19:40.813Z,100225.42
2019-05-16T06:22:10.341Z,100221.10
2019-05-16T06:24:39.917Z,100216.55
2019-05-16T06:27:09.862Z,100222.33
2019-05-16T06:29:40.293Z,100215.10
2019-05-16T06:32:10.837Z,100210.90
2019-05-16T06:34:40.472Z,100212.77
2019-05-16T06:37:09.876Z,100200.34
2019-05-16T06:39:51.854Z,100207.28
2019-05-16T06:42:21.936Z,100205.97
2019-05-16T06:44:52.879Z,100201.52
2019-05-16T06:47:23.143Z,100199.91
2019-05-16T06:49:52.327Z,100206.79
2019-05-16T06:52:21.428Z,100206.28
2019-05-16T06:54:53.747Z,100202.38
2019-05-16T06:57:21.569Z,100202.58
2019-05-16T06:59:50.917Z,100199.58
2019-05-16T07:02:30.440Z,100196.89
2019-05-16T07:04:51.238Z,100192.80
2019-05-16T07:07:20.646Z,100190.42
2019-05-16T07:09:59.934Z,100187.39
2019-05-16T07:12:20.884Z,100184.98
2019-05-16T07:14:50.595Z,100185.24
2019-05-16T07:17:20.318Z,100189.47
2019-05-16T07:19:50.259Z,100181.83
2019-05-16T07:22:20.735Z,100178.77
2019-05-16T07:24:50.475Z,100183.23
2019-05-16T07:27:21.801Z,100180.64
2019-05-16T07:29:50.908Z,100174.87
2019-05-16T07:32:20.606Z,100179.28
2019-05-16T07:34:50.025Z,100174.16
2019-05-16T07:37:20.109Z,100176.52
2019-05-16T07:39:51.057Z,100175.78
2019-05-16T07:42:20.232Z,100178.48
2019-05-16T07:44:50.646Z,100176.28
2019-05-16T07:47:20.369Z,100180.33
2019-05-16T07:49:50.225Z,100173.52
2019-05-16T07:52:20.952Z,100178.05
2019-05-16T07:54:50.888Z,100171.05
2019-05-16T07:57:22.812Z,100164.83
2019-05-16T07:59:50.949Z,100161.52
2019-05-16T08:02:21.001Z,100157.16
2019-05-16T08:04:50.419Z,100158.30
2019-05-16T08:07:20.078Z,100158.38
2019-05-16T08:09:50.536Z,100150.48
2019-05-16T08:12:25.608Z,100150.34
2019-05-16T08:14:51.020Z,100148.28
2019-05-16T08:17:21.703Z,100148.38
2019-05-16T08:19:51.459Z,100153.82
2019-05-16T08:22:22.389Z,100148.12
2019-05-16T08:24:51.735Z,100146.98
2019-05-16T08:27:21.025Z,100146.16
2019-05-16T08:34:52.499Z,100138.57
2019-05-16T08:37:37.467Z,100135.50
2019-05-16T08:39:52.967Z,100130.98
2019-05-16T08:42:22.138Z,100132.77
2019-05-16T08:44:51.932Z,100122.53
2019-05-16T08:47:21.627Z,100114.95
2019-05-16T08:49:52.159Z,100129.77
2019-05-16T08:52:22.537Z,100111.17
2019-05-16T08:54:52.037Z,100113.12
2019-05-16T08:59:52.698Z,100102.60
2019-05-16T09:02:27.804Z,100093.94
2019-05-16T09:04:53.573Z,100093.16
2019-05-16T09:07:24.260Z,100076.59
2019-05-16T09:09:53.415Z,100078.08
2019-05-16T09:10:15.889Z,100109.10
2019-05-16T09:12:22.668Z,100075.39
2019-05-16T09:14:51.789Z,100071.88
2019-05-16T09:17:21.077Z,100069.41
2019-05-16T09:18:38.093Z,100142.02
2019-05-16T09:18:38.487Z,100140.14
2019-05-16T09:19:50.177Z,100074.21
2019-05-16T09:22:19.411Z,100067.95
2019-05-16T09:24:48.608Z,100069.27
2019-05-16T09:27:18.130Z,100076.94
2019-05-16T09:29:47.387Z,100067.20
2019-05-16T09:32:21.153Z,100068.07
2019-05-16T09:34:47.973Z,100063.75
2019-05-16T09:37:18.073Z,100064.05
2019-05-16T09:39:48.093Z,100057.94
2019-05-16T09:42:17.358Z,100059.10
2019-05-16T09:44:47.642Z,100051.02
2019-05-16T09:47:17.831Z,100061.86
2019-05-16T09:49:47.611Z,100063.11
2019-05-16T09:52:17.032Z,100060.73
2019-05-16T09:54:46.918Z,100064.08
2019-05-16T09:57:17.480Z,100056.98
2019-05-16T09:59:46.835Z,100058.68
2019-05-16T10:02:17.644Z,100055.14
2019-05-16T10:04:47.514Z,100045.41
2019-05-16T10:07:17.971Z,100048.51
2019-05-16T10:09:50.198Z,100034.83
2019-05-16T10:12:18.867Z,100035.19
2019-05-16T10:14:47.925Z,100032.31
2019-05-16T10:17:17.754Z,100024.88
2019-05-16T10:19:47.688Z,100023.98
2019-05-16T10:22:17.194Z,100017.03
2019-05-16T10:24:46.949Z,100012.63
2019-05-16T10:27:17.271Z,100000.81
2019-05-16T10:29:48.333Z,99997.34
2019-05-16T10:32:17.890Z,100007.55
2019-05-16T10:34:47.372Z,99999.72
2019-05-16T10:37:17.610Z,99998.58
2019-05-16T10:39:47.095Z,99997.67
2019-05-16T10:42:27.971Z,100000.52
2019-05-16T10:44:48.331Z,99997.61
2019-05-16T10:47:17.885Z,99992.13
2019-05-16T10:49:47.718Z,99987.58
2019-05-16T10:52:16.936Z,99987.38
2019-05-16T10:54:55.403Z,99977.72
2019-05-16T10:57:17.262Z,99979.41
2019-05-16T11:00:06.584Z,99976.29
2019-05-16T11:02:18.769Z,99973.31
2019-05-16T11:04:59.932Z,99964.73
2019-05-16T11:07:18.883Z,99963.97
2019-05-16T11:09:58.610Z,99969.19
2019-05-16T11:12:20.485Z,99969.66
2019-05-16T11:14:50.921Z,99960.53
2019-05-16T11:17:19.975Z,99955.72
2019-05-16T11:19:49.093Z,99958.53
2019-05-16T11:22:18.247Z,99966.84
2019-05-16T11:24:47.391Z,99955.42
2019-05-16T11:27:16.562Z,99948.17
2019-05-16T11:29:47.317Z,99947.09
2019-05-16T11:32:16.560Z,99942.66
2019-05-16T11:34:47.793Z,99940.93
2019-05-16T11:37:17.695Z,99953.41
2019-05-16T11:39:47.020Z,99947.33
2019-05-16T11:42:17.482Z,99946.50
2019-05-16T11:44:47.803Z,99951.38
2019-05-16T11:47:17.202Z,99948.23
2019-05-16T11:49:47.725Z,99945.83
2019-05-16T11:52:18.162Z,99943.98
2019-05-16T11:54:47.417Z,99937.01
2019-05-16T11:57:17.963Z,99938.57
2019-05-16T11:59:47.240Z,99937.55
2019-05-16T12:02:17.548Z,99929.70
2019-05-16T12:04:47.316Z,99932.92
2019-05-16T12:07:19.201Z,99925.84
2019-05-16T12:09:55.039Z,99929.61
2019-05-16T12:12:20.961Z,99924.09
2019-05-16T12:14:50.318Z,99916.52
2019-05-16T12:17:19.511Z,99915.94
2019-05-16T12:19:52.610Z,99913.62
2019-05-16T12:22:20.063Z,99913.80
2019-05-16T12:24:49.137Z,99911.03
2019-05-16T12:27:18.800Z,99896.23
2019-05-16T12:29:54.863Z,99899.47
2019-05-16T12:32:18.807Z,99898.88
2019-05-16T12:34:48.100Z,99888.63
2019-05-16T12:37:17.295Z,99894.89
2019-05-16T12:39:47.143Z,99887.28
2019-05-16T12:42:16.253Z,99875.23
2019-05-16T12:44:46.896Z,99883.18
2019-05-16T12:47:16.102Z,99887.59
2019-05-16T12:49:47.240Z,99872.95
2019-05-16T12:52:16.600Z,99880.99
2019-05-16T12:54:47.508Z,99878.89
2019-05-16T12:57:18.179Z,99873.78
2019-05-16T12:59:49.976Z,99875.75
2019-05-16T13:02:21.559Z,99862.45
2019-05-16T13:04:49.481Z,99854.47
2019-05-16T13:07:18.663Z,99857.08
2019-05-16T13:09:50.234Z,99851.09
2019-05-16T13:12:18.600Z,99853.64
2019-05-16T13:14:47.681Z,99844.08
2019-05-16T13:17:16.757Z,99840.91
2019-05-16T13:19:48.212Z,99838.42
2019-05-16T13:22:17.137Z,99835.39
2019-05-16T13:24:47.969Z,99835.01
2019-05-16T13:27:22.753Z,99824.82
2019-05-16T13:29:48.645Z,99828.95
2019-05-16T13:32:17.724Z,99815.27
2019-05-16T13:34:46.996Z,99807.98
2019-05-16T13:37:17.943Z,99808.60
2019-05-16T13:39:47.706Z,99803.13
2019-05-16T13:42:17.042Z,99802.28
2019-05-16T13:44:47.157Z,99792.44
2019-05-16T13:47:18.287Z,99793.48
2019-05-16T13:49:49.108Z,99791.84
2019-05-16T13:52:18.158Z,99792.63
2019-05-16T13:54:48.852Z,99784.89
2019-05-16T13:57:17.933Z,99781.43
2019-05-16T13:59:47.012Z,99779.68
2019-05-16T14:02:17.367Z,99775.55
2019-05-16T14:04:46.640Z,99766.17
2019-05-16T14:07:17.159Z,99768.16
2019-05-16T14:09:47.304Z,99758.59
2019-05-16T14:12:17.668Z,99761.60
2019-05-16T14:14:47.892Z,99747.11
2019-05-16T14:17:17.956Z,99743.34
2019-05-16T14:19:48.045Z,99743.36
2019-05-16T14:22:17.807Z,99744.60
2019-05-16T14:24:48.088Z,99740.21
2019-05-16T14:27:17.989Z,99737.83
2019-05-16T14:29:47.754Z,99730.77
2019-05-16T14:32:19.673Z,99733.34
2019-05-16T14:34:51.745Z,99721.40
2019-05-16T14:37:29.618Z,99726.46
2019-05-16T14:40:01.381Z,99725.93
2019-05-16T14:42:30.355Z,99714.41
2019-05-16T14:45:09.917Z,99720.26
2019-05-16T14:47:30.298Z,99714.77
2019-05-16T14:49:59.584Z,99710.05
2019-05-16T14:52:28.858Z,99706.41
2019-05-16T14:54:58.015Z,99701.92
2019-05-16T14:57:27.516Z,99698.84
2019-05-16T14:59:56.678Z,99701.89
2019-05-16T15:02:27.589Z,99700.76
2019-05-16T15:04:57.111Z,99696.72
2019-05-16T15:07:27.684Z,99692.70
2019-05-16T15:09:56.863Z,99693.47
2019-05-16T15:12:26.853Z,99693.94
2019-05-16T15:14:58.660Z,99689.37
2019-05-16T15:17:27.526Z,99680.09
2019-05-16T15:19:57.290Z,99683.61
2019-05-16T15:22:27.334Z,99676.91
2019-05-16T15:24:59.052Z,99674.16
2019-05-16T15:27:27.653Z,99676.55
2019-05-16T15:29:57.730Z,99671.31
2019-05-16T15:32:31.570Z,99670.03
2019-05-16T15:34:58.174Z,99668.59
2019-05-16T15:37:27.520Z,99671.14
2019-05-16T15:39:56.593Z,99669.16
2019-05-16T15:42:27.792Z,99664.20
2019-05-16T15:44:57.122Z,99663.63
2019-05-16T15:47:27.831Z,99664.34
2019-05-16T15:49:59.723Z,99668.27
2019-05-16T15:52:28.738Z,99659.87
2019-05-16T15:54:58.840Z,99655.39
2019-05-16T15:57:30.921Z,99655.34
2019-05-16T15:59:59.409Z,99668.38
2019-05-16T16:02:28.631Z,99660.13
2019-05-16T16:04:57.895Z,99657.16
2019-05-16T16:07:27.205Z,99652.83
2019-05-16T16:09:57.682Z,99652.67
2019-05-16T16:12:27.027Z,99645.71
2019-05-16T16:14:57.462Z,99639.38
2019-05-16T16:17:29.202Z,99636.87
2019-05-16T16:19:58.031Z,99643.39
2019-05-16T16:22:27.385Z,99631.17
2019-05-16T16:24:58.735Z,99635.41
2019-05-16T16:27:27.886Z,99632.01
2019-05-16T16:29:57.087Z,99633.84
2019-05-16T16:32:26.871Z,99631.08
2019-05-16T16:34:57.520Z,99631.97
2019-05-16T16:37:27.459Z,99623.26
2019-05-16T16:39:57.608Z,99622.98
2019-05-16T16:42:27.304Z,99628.10
2019-05-16T16:44:56.686Z,99632.95
2019-05-16T16:47:26.946Z,99630.03
2019-05-16T16:49:59.304Z,99630.56
2019-05-16T16:52:27.759Z,99628.81
2019-05-16T16:54:57.004Z,99630.43
2019-05-16T16:57:27.070Z,99626.11
2019-05-16T16:59:56.461Z,99635.40
2019-05-16T17:02:27.824Z,99625.73
2019-05-16T17:05:01.462Z,99628.50
2019-05-16T17:07:27.813Z,99621.67
2019-05-16T17:09:56.962Z,99619.55
2019-05-16T17:12:26.258Z,99613.70
2019-05-16T17:14:56.982Z,99617.25
2019-05-16T17:17:26.554Z,99609.91
2019-05-16T17:19:57.966Z,99611.00
2019-05-16T17:22:27.069Z,99612.35
2019-05-16T17:24:56.789Z,99607.34
2019-05-16T17:27:26.805Z,99606.14
2019-05-16T17:29:56.858Z,99604.80
2019-05-16T17:32:27.446Z,99606.16
2019-05-16T17:34:56.834Z,99601.87
2019-05-16T17:37:26.788Z,99602.19
2019-05-16T17:39:56.977Z,99603.07
2019-05-16T17:42:27.198Z,99607.41
2019-05-16T17:44:56.782Z,99606.31
2019-05-16T17:47:26.338Z,99603.33
2019-05-16T17:49:55.399Z,99603.80
2019-05-16T17:52:27.155Z,99600.25
2019-05-16T17:54:55.708Z,99603.84
2019-05-16T17:57:27.385Z,99599.95
2019-05-16T17:59:57.410Z,99588.73
2019-05-16T18:02:26.800Z,99607.45
2019-05-16T18:04:56.716Z,99604.14
2019-05-16T18:07:26.030Z,99613.31
2019-05-16T18:09:56.741Z,99607.88
2019-05-16T18:12:27.537Z,99610.78
2019-05-16T18:14:57.223Z,99602.90
2019-05-16T18:17:26.877Z,99603.68
2019-05-16T18:19:57.168Z,99605.55
2019-05-16T18:22:26.401Z,99604.44
2019-05-16T18:24:57.847Z,99599.84
2019-05-16T18:27:27.456Z,99599.84
2019-05-16T18:29:56.553Z,99598.19
2019-05-16T18:32:26.610Z,99598.75
2019-05-16T18:34:56.426Z,99594.11
2019-05-16T18:37:26.643Z,99589.99
2019-05-16T18:39:56.440Z,99595.38
2019-05-16T18:42:27.554Z,99590.73
2019-05-16T18:44:56.682Z,99591.26
2019-05-16T18:47:27.122Z,99592.23
2019-05-16T18:49:57.354Z,99591.08
2019-05-16T18:52:26.847Z,99588.61
2019-05-16T18:54:57.587Z,99583.95
2019-05-16T18:57:28.510Z,99583.28
2019-05-16T18:59:57.817Z,99578.28
2019-05-16T19:02:27.639Z,99576.81
2019-05-16T19:04:57.734Z,99576.20
2019-05-16T19:07:27.743Z,99577.48
2019-05-16T19:09:57.037Z,99577.41
2019-05-16T19:12:26.412Z,99572.50
2019-05-16T19:14:57.156Z,99578.15
2019-05-16T19:17:27.536Z,99571.11
2019-05-16T19:19:57.159Z,99573.75
2019-05-16T19:22:26.506Z,99565.03
2019-05-16T19:24:57.327Z,99565.02
2019-05-16T19:27:27.046Z,99577.20
2019-05-16T19:29:56.911Z,99578.19
2019-05-16T19:32:26.123Z,99577.96
2019-05-16T19:34:57.389Z,99580.17
2019-05-16T19:37:26.722Z,99583.35
2019-05-16T19:39:56.942Z,99580.16
2019-05-16T19:42:26.615Z,99581.45
2019-05-16T19:44:57.519Z,99584.64
2019-05-16T19:47:35.056Z,99577.14
2019-05-16T19:49:57.984Z,99583.66
2019-05-16T19:52:27.192Z,99584.31
2019-05-16T19:54:56.557Z,99590.37
2019-05-16T19:57:26.594Z,99588.53
